Channel-Port Aux Basques, Canada
Current Conditions -  °F | °C
As of 3:00 PM on Thursday 27 Nov 2014 (Local Time) from CWZB Reporting Station
Overcast Overcast  
Wind Chill: 30°   Ceiling: 4200
Heat Index: 39°   Visibility: 2mi
Dew Point: 39°   Wind: 17mph
Humidity: 99%   Direction: 80°E
Pressure: 29.22"   Gusts: NA
Location:  47.57°N, 59.15°W
Report Text: CWZB 271800Z AUTO 08015KT 2SM OVC000 OVC042 OVC067 04/04 A2922 RMK SLP896 PK WND 08025/// T00380037 10038 20006 60016 70114 WSI/SWOB
Loading
Personal Weather Stations






























Interactive Weather Map New forecast layout! Learn more

10-Day Weather Forecast

Advertisements
Track Severe Weather on mobile